Time;durP1;ratioP1;P1;durP2;ratioP2;P2;SDS_P1;SDS_P2;PMS_P1;PMS_P2;Temp;Humidity;BMP_temperature;BMP_pressure;BME280_temperature;BME280_humidity;BME280_pressure;Samples;Min_cycle;Max_cycle;Signal;HPM_P1;HPM_P2
2022/05/11 00:02:07;;;;;;;12.60;9.40;;;15.10;94.30;;;;;;5093233;28;20431;-76
2022/05/11 00:04:39;;;;;;;10.65;8.23;;;15.20;94.60;;;;;;5110087;28;20046;-74
2022/05/11 00:07:12;;;;;;;10.60;8.00;;;15.10;94.60;;;;;;5093920;28;20059;-75
2022/05/11 00:09:44;;;;;;;11.75;8.13;;;15.10;94.90;;;;;;5095161;28;20035;-75
2022/05/11 00:12:17;;;;;;;13.65;8.70;;;15.10;95.40;;;;;;5101759;28;20055;-75
2022/05/11 00:14:49;;;;;;;12.63;8.38;;;15.00;95.80;;;;;;5107067;28;20083;-74
2022/05/11 00:17:22;;;;;;;9.35;7.40;;;14.90;96.20;;;;;;5100778;28;20059;-74
2022/05/11 00:19:54;;;;;;;11.63;7.72;;;15.00;96.20;;;;;;5099883;28;20062;-75
2022/05/11 00:22:27;;;;;;;11.45;8.10;;;15.00;96.30;;;;;;5098995;28;20062;-74
2022/05/11 00:25:00;;;;;;;12.40;8.18;;;14.90;96.80;;;;;;5105846;28;20051;-74
2022/05/11 00:27:32;;;;;;;15.27;8.43;;;14.90;97.10;;;;;;5088511;29;20082;-73
2022/05/11 00:30:06;;;;;;;14.10;7.75;;;14.80;97.40;;;;;;5101745;28;20047;-73
2022/05/11 00:32:38;;;;;;;;;;;14.80;97.70;;;;;;5099842;28;20420;-74
2022/05/11 00:35:11;;;;;;;10.18;8.27;;;14.60;99.90;;;;;;5099610;28;19926;-73
2022/05/11 00:37:43;;;;;;;10.57;8.85;;;14.60;98.40;;;;;;5092143;28;20043;-74
2022/05/11 00:40:17;;;;;;;11.55;8.65;;;14.70;98.80;;;;;;5100367;28;20082;-75
2022/05/11 00:42:51;;;;;;;12.07;8.27;;;14.70;98.90;;;;;;5092042;28;20051;-74
2022/05/11 00:45:24;;;;;;;16.40;8.43;;;14.70;99.10;;;;;;5091706;28;20748;-75
2022/05/11 00:47:59;;;;;;;12.40;8.13;;;14.70;99.20;;;;;;5096333;28;20059;-74
2022/05/11 00:50:34;;;;;;;12.60;8.20;;;14.70;99.60;;;;;;5101201;28;20055;-75
2022/05/11 00:53:12;;;;;;;17.42;9.38;;;14.70;99.90;;;;;;5092783;28;20062;-75
2022/05/11 00:55:51;;;;;;;12.82;8.18;;;14.70;99.90;;;;;;5100873;28;20048;-75
2022/05/11 00:58:36;;;;;;;10.60;8.32;;;14.70;99.90;;;;;;5116227;28;20512;-74
2022/05/11 01:01:09;;;;;;;12.50;8.05;;;14.60;99.90;;;;;;5101015;28;20055;-74
2022/05/11 01:03:50;;;;;;;16.00;8.47;;;14.60;99.90;;;;;;5099536;28;20059;-74
2022/05/11 01:06:23;;;;;;;11.18;8.05;;;14.50;99.90;;;;;;5088394;28;20073;-75
2022/05/11 01:08:55;;;;;;;10.30;8.25;;;14.50;99.90;;;;;;5101116;28;20051;-75
2022/05/11 01:11:29;;;;;;;13.43;8.75;;;14.40;99.90;;;;;;5104005;28;20054;-74
2022/05/11 01:14:06;;;;;;;10.15;8.20;;;14.40;99.90;;;;;;5101776;28;20058;-76
2022/05/11 01:16:40;;;;;;;14.27;8.73;;;14.40;99.90;;;;;;5083568;29;20073;-75
2022/05/11 01:19:27;;;;;;;9.07;7.43;;;14.30;99.90;;;;;;5090892;28;20043;-75
2022/05/11 01:22:39;;;;;;;10.73;8.45;;;14.30;99.90;;;;;;5096352;28;20422;-74
2022/05/11 01:25:15;;;;;;;14.52;8.52;;;14.20;99.90;;;;;;5098525;28;20058;-75
2022/05/11 01:27:48;;;;;;;11.73;8.07;;;14.10;99.90;;;;;;5092027;28;20066;-76
2022/05/11 01:30:23;;;;;;;11.27;8.50;;;14.10;99.90;;;;;;5100679;28;20384;-75
2022/05/11 01:32:56;;;;;;;12.40;8.35;;;14.00;99.90;;;;;;5103305;28;20047;-74
2022/05/11 01:35:36;;;;;;;10.25;7.70;;;14.00;99.90;;;;;;5095091;28;20069;-74
2022/05/11 01:38:25;;;;;;;11.93;8.52;;;14.00;99.90;;;;;;5099656;28;20591;-75
2022/05/11 01:41:01;;;;;;;10.18;7.72;;;14.10;99.90;;;;;;5096207;28;20054;-76
2022/05/11 01:43:37;;;;;;;13.98;8.18;;;14.00;99.90;;;;;;5116894;28;20475;-75
2022/05/11 01:46:10;;;;;;;10.70;7.25;;;14.00;99.90;;;;;;5090367;28;20094;-75
2022/05/11 01:48:43;;;;;;;13.43;8.10;;;14.10;99.90;;;;;;5098175;28;20047;-75
2022/05/11 01:51:18;;;;;;;10.60;8.32;;;14.10;99.90;;;;;;5096893;28;20052;-74
2022/05/11 01:53:51;;;;;;;9.70;7.65;;;14.00;99.90;;;;;;5096479;28;20065;-74
2022/05/11 01:56:26;;;;;;;13.23;8.65;;;14.00;99.90;;;;;;5099099;28;20047;-74
2022/05/11 01:58:58;;;;;;;11.02;7.53;;;13.90;99.90;;;;;;5102703;28;20519;-74
2022/05/11 02:01:34;;;;;;;12.33;8.33;;;13.90;99.90;;;;;;5095924;28;21352;-73
2022/05/11 02:09:51;;;;;;;8.32;6.93;;;13.80;99.90;;;;;;5098284;28;21117;-74
2022/05/11 02:12:23;;;;;;;10.07;7.78;;;13.70;99.90;;;;;;5100295;28;20527;-75
2022/05/11 02:14:56;;;;;;;11.80;7.78;;;13.70;99.90;;;;;;5106533;28;20137;-75
2022/05/11 02:17:28;;;;;;;9.20;6.93;;;13.60;99.90;;;;;;5091448;29;20051;-72
2022/05/11 02:20:02;;;;;;;8.68;7.30;;;13.70;99.90;;;;;;5102374;28;20047;-74
2022/05/11 02:22:34;;;;;;;11.27;7.78;;;13.70;99.90;;;;;;5097446;28;20051;-76
2022/05/11 02:25:08;;;;;;;10.55;7.70;;;13.70;99.90;;;;;;5093688;28;21546;-75
2022/05/11 02:27:42;;;;;;;12.80;7.80;;;13.60;99.90;;;;;;5092708;28;20399;-75
2022/05/11 02:30:18;;;;;;;10.15;7.68;;;13.70;99.90;;;;;;5089415;28;20419;-76
2022/05/11 02:32:52;;;;;;;11.00;7.03;;;13.60;99.90;;;;;;5096939;28;20039;-75
2022/05/11 02:35:25;;;;;;;;;;;13.60;99.90;;;;;;5086902;28;20385;-75
2022/05/11 02:38:01;;;;;;;10.20;7.50;;;13.60;99.90;;;;;;5107551;28;20488;-73
2022/05/11 02:40:37;;;;;;;14.27;7.90;;;13.70;99.90;;;;;;5088915;28;20055;-76
2022/05/11 02:43:11;;;;;;;8.80;7.07;;;13.70;99.90;;;;;;5097140;28;20055;-75
2022/05/11 02:45:44;;;;;;;10.05;7.72;;;13.70;99.90;;;;;;5094700;28;20062;-75
2022/05/11 02:48:22;;;;;;;8.80;7.07;;;13.70;99.90;;;;;;5094231;28;20043;-74
2022/05/11 02:50:57;;;;;;;11.45;7.70;;;13.70;99.90;;;;;;5099731;28;20055;-75
2022/05/11 02:53:31;;;;;;;10.77;7.70;;;13.70;99.90;;;;;;5100179;28;20071;-73
2022/05/11 02:56:04;;;;;;;9.52;7.32;;;13.70;99.90;;;;;;5095179;28;20048;-74
2022/05/11 02:58:37;;;;;;;11.20;8.00;;;13.80;99.90;;;;;;5097426;28;20136;-75
2022/05/11 03:01:09;;;;;;;11.35;6.95;;;13.80;99.90;;;;;;5099651;28;20051;-74
2022/05/11 03:03:42;;;;;;;10.43;7.43;;;13.80;99.90;;;;;;5101823;28;20053;-75
2022/05/11 03:06:14;;;;;;;10.10;7.00;;;13.80;99.90;;;;;;5099188;28;20070;-74
2022/05/11 03:08:47;;;;;;;9.00;6.97;;;13.80;99.90;;;;;;5101744;28;20153;-73
2022/05/11 03:11:20;;;;;;;9.13;7.50;;;13.80;99.90;;;;;;5101005;28;20059;-74
2022/05/11 03:13:52;;;;;;;12.77;7.85;;;13.70;99.90;;;;;;5095871;28;20047;-75
2022/05/11 03:16:31;;;;;;;8.73;7.00;;;13.70;99.90;;;;;;5102853;28;21392;-76
2022/05/11 03:19:04;;;;;;;8.65;7.00;;;13.70;99.90;;;;;;5096735;28;20058;-73
2022/05/11 03:21:36;;;;;;;11.07;7.17;;;13.70;99.90;;;;;;5098384;28;20055;-75
2022/05/11 03:24:09;;;;;;;10.00;7.47;;;13.60;99.90;;;;;;5103592;28;20427;-73
2022/05/11 03:26:41;;;;;;;8.55;6.07;;;13.60;99.90;;;;;;5107325;28;20138;-75
2022/05/11 03:29:14;;;;;;;9.00;6.93;;;13.60;99.90;;;;;;5116271;28;20059;-75
2022/05/11 03:34:39;;;;;;;9.90;7.60;;;13.50;99.90;;;;;;5081941;28;20051;-75
2022/05/11 03:37:15;;;;;;;8.88;6.45;;;13.50;99.90;;;;;;5098562;28;20047;-76
2022/05/11 03:39:48;;;;;;;10.68;6.25;;;13.50;99.90;;;;;;5102131;28;20050;-75
2022/05/11 03:42:22;;;;;;;11.43;7.53;;;13.50;99.90;;;;;;5095340;28;20389;-75
2022/05/11 03:44:55;;;;;;;11.25;7.55;;;13.50;99.90;;;;;;5110045;28;20174;-75
2022/05/11 03:47:28;;;;;;;9.02;7.22;;;13.50;99.90;;;;;;5078469;29;20063;-74
2022/05/11 03:50:01;;;;;;;12.15;7.43;;;13.50;99.90;;;;;;5109461;28;20051;-75
2022/05/11 03:52:34;;;;;;;10.00;7.32;;;13.50;99.90;;;;;;5095517;28;20063;-74
2022/05/11 03:55:09;;;;;;;9.73;7.47;;;13.60;99.90;;;;;;5094656;28;20051;-73
2022/05/11 03:57:42;;;;;;;10.55;7.35;;;13.60;99.90;;;;;;5090346;28;20058;-76
2022/05/11 04:00:21;;;;;;;9.77;6.95;;;13.60;99.90;;;;;;5087681;28;20518;-75
2022/05/11 04:02:55;;;;;;;10.38;6.93;;;13.60;99.90;;;;;;5083142;28;20055;-74
2022/05/11 04:05:28;;;;;;;10.50;7.35;;;13.70;99.90;;;;;;5092467;28;20051;-75
2022/05/11 04:08:01;;;;;;;9.43;6.63;;;13.70;99.90;;;;;;5081145;28;20054;-74
2022/05/11 04:10:33;;;;;;;9.27;7.30;;;13.70;99.90;;;;;;5078293;28;20562;-74
2022/05/11 04:13:06;;;;;;;12.03;7.60;;;13.80;99.90;;;;;;5081875;29;20043;-76
2022/05/11 04:15:39;;;;;;;9.27;6.68;;;13.80;99.90;;;;;;5095025;28;20566;-74
2022/05/11 04:18:14;;;;;;;8.48;6.47;;;13.80;99.90;;;;;;5097360;28;20051;-76
2022/05/11 04:20:46;;;;;;;11.68;6.55;;;13.70;99.90;;;;;;5084818;28;20058;-75
2022/05/11 04:23:19;;;;;;;9.23;6.43;;;13.80;99.90;;;;;;5086904;28;20409;-75
2022/05/11 04:25:51;;;;;;;12.63;7.20;;;13.80;99.90;;;;;;5095002;28;20051;-74
2022/05/11 04:28:23;;;;;;;10.90;7.85;;;13.80;99.90;;;;;;5103094;28;20047;-74
2022/05/11 04:31:05;;;;;;;10.30;7.25;;;13.80;99.90;;;;;;5093252;28;20055;-74
2022/05/11 04:33:37;;;;;;;9.82;6.95;;;13.80;99.90;;;;;;5095933;28;20710;-73
2022/05/11 04:36:10;;;;;;;7.70;6.55;;;13.80;99.90;;;;;;5103826;28;20066;-73
2022/05/11 04:38:42;;;;;;;9.90;6.72;;;13.80;99.90;;;;;;5098063;28;20074;-74
2022/05/11 04:41:15;;;;;;;10.73;7.30;;;13.80;99.90;;;;;;5095184;28;20891;-76
2022/05/11 04:43:48;;;;;;;11.55;7.43;;;13.80;99.90;;;;;;5095743;28;20055;-76
2022/05/11 04:46:20;;;;;;;14.27;7.30;;;13.80;99.90;;;;;;5096094;28;20051;-73
2022/05/11 04:49:16;;;;;;;10.13;7.10;;;13.90;99.90;;;;;;5096409;28;20184;-74
2022/05/11 04:52:10;;;;;;;8.52;6.60;;;13.90;99.90;;;;;;5090171;28;20071;-75
2022/05/11 04:54:46;;;;;;;9.98;6.03;;;14.00;99.90;;;;;;5116327;28;20074;-74
2022/05/11 04:57:20;;;;;;;9.90;6.70;;;14.00;99.90;;;;;;5105282;28;20043;-75
2022/05/11 04:59:53;;;;;;;9.30;7.00;;;14.10;99.90;;;;;;5103977;28;21368;-73
2022/05/11 05:02:27;;;;;;;8.43;6.30;;;14.20;99.90;;;;;;5083230;28;20055;-76
2022/05/11 05:05:01;;;;;;;13.20;6.43;;;14.30;99.90;;;;;;5096995;28;20047;-75
2022/05/11 05:07:36;;;;;;;11.60;7.38;;;14.30;99.90;;;;;;5102624;28;20558;-76
2022/05/11 05:10:12;;;;;;;7.35;6.43;;;14.40;99.90;;;;;;5091771;28;20048;-75
2022/05/11 05:12:45;;;;;;;9.93;6.35;;;14.50;99.90;;;;;;5097525;28;20047;-74
2022/05/11 05:15:18;;;;;;;9.55;6.13;;;14.60;99.90;;;;;;5081357;29;20074;-73
2022/05/11 05:17:51;;;;;;;10.07;6.40;;;14.70;99.90;;;;;;5089510;28;20048;-74
2022/05/11 05:20:24;;;;;;;9.95;6.35;;;14.80;99.30;;;;;;5100710;28;20515;-73
2022/05/11 05:22:57;;;;;;;8.13;6.30;;;14.90;99.40;;;;;;5080385;28;20055;-75
2022/05/11 05:25:29;;;;;;;12.15;5.90;;;15.00;98.50;;;;;;5103339;28;20055;-74
2022/05/11 05:31:04;;;;;;;9.32;6.38;;;15.10;97.60;;;;;;5106497;28;20059;-76
2022/05/11 05:31:06;;;;;;;9.70;5.80;;;15.20;97.20;;;;;;5102700;28;20516;-75
2022/05/11 05:33:39;;;;;;;7.13;5.38;;;15.40;96.90;;;;;;5105930;28;20076;-75
2022/05/11 05:36:12;;;;;;;7.63;5.90;;;15.50;96.30;;;;;;5097841;28;20047;-74
2022/05/11 05:38:44;;;;;;;7.78;5.90;;;15.60;95.30;;;;;;5099781;28;20499;-76
2022/05/11 05:41:17;;;;;;;10.20;5.88;;;15.70;94.40;;;;;;5109278;28;20047;-75
2022/05/11 05:43:50;;;;;;;8.10;5.65;;;15.90;94.30;;;;;;5123895;28;20993;-75
2022/05/11 05:46:23;;;;;;;6.25;5.35;;;16.00;93.30;;;;;;5103157;28;20043;-75
2022/05/11 05:48:56;;;;;;;10.40;5.63;;;16.10;92.20;;;;;;5109589;28;20743;-74
2022/05/11 05:51:29;;;;;;;6.70;5.30;;;16.20;91.80;;;;;;5107120;28;20586;-76
2022/05/11 05:54:02;;;;;;;8.73;5.28;;;16.40;91.20;;;;;;5109991;28;20043;-74
2022/05/11 05:56:34;;;;;;;8.15;5.45;;;16.50;90.80;;;;;;5110212;28;20070;-75
2022/05/11 05:59:10;;;;;;;6.97;5.28;;;16.60;90.40;;;;;;5109208;28;20055;-74
2022/05/11 06:01:42;;;;;;;5.40;4.90;;;16.80;89.60;;;;;;5123577;28;20055;-73
2022/05/11 06:04:15;;;;;;;8.90;5.18;;;16.90;89.30;;;;;;5109839;28;20053;-74
2022/05/11 06:06:48;;;;;;;9.20;5.17;;;17.10;87.70;;;;;;5106136;28;20058;-75
2022/05/11 06:09:20;;;;;;;8.68;5.93;;;17.30;87.00;;;;;;5109536;28;20062;-75
2022/05/11 06:11:52;;;;;;;7.80;4.53;;;17.40;86.40;;;;;;5101560;28;20051;-74
2022/05/11 06:14:25;;;;;;;6.65;5.35;;;17.50;86.10;;;;;;5110416;28;20050;-73
2022/05/11 06:17:01;;;;;;;7.63;4.57;;;17.70;86.20;;;;;;5108277;28;20058;-73
2022/05/11 06:19:34;;;;;;;8.05;4.80;;;17.90;86.10;;;;;;5107901;28;20043;-73
2022/05/11 06:22:06;;;;;;;8.13;4.68;;;18.00;84.60;;;;;;5109121;28;20054;-73
2022/05/11 06:24:39;;;;;;;8.13;5.18;;;18.10;82.00;;;;;;5107986;28;20420;-74
2022/05/11 06:27:20;;;;;;;7.18;4.75;;;18.20;81.40;;;;;;5110189;28;20055;-73
2022/05/11 06:29:55;;;;;;;6.68;4.82;;;18.40;80.80;;;;;;5109473;28;20039;-73
2022/05/11 06:32:27;;;;;;;9.00;5.68;;;18.50;79.60;;;;;;5110559;28;20499;-74
2022/05/11 06:35:00;;;;;;;7.05;5.30;;;18.60;79.70;;;;;;5107804;28;20062;-74
2022/05/11 06:37:33;;;;;;;10.47;4.80;;;18.70;79.10;;;;;;5114467;28;20047;-75
2022/05/11 06:40:07;;;;;;;7.95;4.57;;;18.80;80.00;;;;;;5113072;28;20332;-74
2022/05/11 06:42:41;;;;;;;11.57;4.63;;;18.90;79.00;;;;;;5119624;28;20435;-75
2022/05/11 06:45:15;;;;;;;7.10;4.63;;;19.00;78.80;;;;;;5111357;28;20051;-75
2022/05/11 06:47:47;;;;;;;7.45;4.68;;;19.10;78.10;;;;;;5106730;28;20058;-75
2022/05/11 06:50:21;;;;;;;7.75;4.60;;;19.20;77.60;;;;;;5125890;28;20140;-75
2022/05/11 06:52:55;;;;;;;12.45;4.65;;;19.40;77.80;;;;;;5111680;28;20051;-73
2022/05/11 07:01:02;;;;;;;8.65;4.75;;;19.80;75.40;;;;;;5103328;28;20052;-74
2022/05/11 07:03:35;;;;;;;4.95;4.20;;;20.00;74.30;;;;;;5112691;28;20062;-75
2022/05/11 07:06:08;;;;;;;7.45;3.90;;;20.00;73.20;;;;;;5112815;28;20051;-74
2022/05/11 07:08:42;;;;;;;5.85;4.18;;;20.10;72.30;;;;;;5113800;28;21128;-75
2022/05/11 07:14:08;;;;;;;4.70;4.18;;;20.50;70.70;;;;;;5113510;28;20123;-75
2022/05/11 07:16:41;;;;;;;7.38;4.35;;;20.50;71.00;;;;;;5111472;28;20047;-74
2022/05/11 07:19:13;;;;;;;5.97;4.38;;;20.70;69.90;;;;;;5112384;28;21088;-75
2022/05/11 07:21:46;;;;;;;6.85;4.20;;;20.70;70.50;;;;;;5111644;28;20059;-75
2022/05/11 07:24:19;;;;;;;6.07;4.20;;;20.90;70.70;;;;;;5112212;28;20052;-76
2022/05/11 07:26:51;;;;;;;5.73;4.60;;;21.00;70.40;;;;;;5110928;28;20043;-75
2022/05/11 07:29:24;;;;;;;7.63;4.18;;;21.10;70.10;;;;;;5111563;28;20043;-75
2022/05/11 07:31:56;;;;;;;5.07;4.38;;;21.20;69.90;;;;;;5112564;28;20055;-75
2022/05/11 07:34:29;;;;;;;6.15;4.70;;;21.20;70.20;;;;;;5126439;28;20923;-75
2022/05/11 07:37:01;;;;;;;8.85;4.72;;;21.30;69.70;;;;;;5105951;28;20054;-76
2022/05/11 07:39:35;;;;;;;6.20;4.85;;;21.40;69.80;;;;;;5110924;28;20066;-76
2022/05/11 07:42:07;;;;;;;5.32;4.15;;;21.50;69.50;;;;;;5104257;29;20043;-75
2022/05/11 07:44:40;;;;;;;7.85;5.28;;;21.50;69.20;;;;;;5110632;28;20376;-74
2022/05/11 07:47:12;;;;;;;6.30;4.53;;;21.50;69.60;;;;;;5126285;28;20043;-76
2022/05/11 07:49:45;;;;;;;6.20;5.03;;;21.60;69.50;;;;;;5112037;28;20055;-73
2022/05/11 07:52:18;;;;;;;6.40;5.05;;;21.80;70.30;;;;;;5110753;28;20051;-75
2022/05/11 07:54:50;;;;;;;5.57;4.78;;;21.90;69.20;;;;;;5172820;23;20060;-71
2022/05/11 08:00:14;;;;;;;6.75;5.10;;;22.00;68.60;;;;;;5170153;28;20817;-71
2022/05/11 08:02:47;;;;;;;6.63;5.30;;;22.00;68.50;;;;;;5169551;28;20069;-71
2022/05/11 08:05:21;;;;;;;7.93;5.32;;;22.00;68.40;;;;;;5166401;28;20046;-71
2022/05/11 08:07:55;;;;;;;5.00;4.50;;;22.10;68.80;;;;;;5175222;23;20049;-73
2022/05/11 08:10:39;;;;;;;7.35;5.72;;;22.00;69.10;;;;;;5171787;28;20517;-73
2022/05/11 08:13:12;;;;;;;7.72;4.70;;;22.10;67.60;;;;;;5169348;28;20049;-73
2022/05/11 08:15:49;;;;;;;6.75;5.20;;;22.10;68.90;;;;;;5172201;28;20057;-74
2022/05/11 08:18:22;;;;;;;6.10;4.88;;;22.30;68.70;;;;;;5171418;28;20062;-73
2022/05/11 08:20:54;;;;;;;9.18;5.15;;;22.40;68.20;;;;;;5170447;28;20053;-72
2022/05/11 08:23:28;;;;;;;6.63;4.93;;;22.50;67.90;;;;;;5172046;28;20529;-72
2022/05/11 08:26:01;;;;;;;7.25;5.20;;;22.50;68.70;;;;;;5170577;28;20050;-74
2022/05/11 08:28:33;;;;;;;8.10;5.35;;;22.60;68.00;;;;;;5162616;28;20064;-74
2022/05/11 08:33:56;;;;;;;5.70;5.10;;;22.70;67.40;;;;;;5167371;28;20042;-74
2022/05/11 08:36:48;;;;;;;7.60;5.40;;;22.80;66.60;;;;;;5161249;28;20034;-73
2022/05/11 08:39:20;;;;;;;8.90;5.20;;;22.80;66.20;;;;;;5179624;28;20057;-73
2022/05/11 08:41:53;;;;;;;4.90;4.38;;;22.90;66.70;;;;;;5169126;28;20045;-73
2022/05/11 08:44:33;;;;;;;6.75;5.00;;;23.00;65.20;;;;;;5171822;28;20049;-73
2022/05/11 08:47:24;;;;;;;7.00;5.10;;;23.10;65.80;;;;;;5170613;28;20054;-75
2022/05/11 08:50:09;;;;;;;6.80;4.60;;;23.30;65.40;;;;;;5170051;28;20049;-72
2022/05/11 08:52:59;;;;;;;7.30;5.13;;;23.40;63.80;;;;;;5169122;28;20508;-74
2022/05/11 08:55:42;;;;;;;5.80;4.80;;;23.40;64.60;;;;;;5170771;28;20062;-73
2022/05/11 08:58:42;;;;;;;5.30;4.80;;;23.40;64.00;;;;;;5169009;28;20518;-72
2022/05/11 09:01:35;;;;;;;9.32;5.18;;;23.50;64.20;;;;;;5158818;28;20536;-74
2022/05/11 09:04:09;;;;;;;7.18;4.40;;;23.60;64.00;;;;;;5169327;28;20068;-74
2022/05/11 09:06:44;;;;;;;5.13;4.47;;;23.60;63.40;;;;;;5170469;28;20060;-71
2022/05/11 09:09:17;;;;;;;5.40;4.55;;;23.60;63.30;;;;;;5169863;28;20046;-74
2022/05/11 09:11:52;;;;;;;8.48;4.90;;;23.70;63.50;;;;;;5170538;28;20338;-74
2022/05/11 09:14:36;;;;;;;5.10;4.60;;;23.70;63.40;;;;;;5170628;28;20042;-74
2022/05/11 09:17:29;;;;;;;6.55;4.45;;;23.70;61.00;;;;;;5170290;28;20038;-73
2022/05/11 09:20:13;;;;;;;5.07;3.78;;;23.80;61.90;;;;;;5168700;28;20045;-73
2022/05/11 09:23:02;;;;;;;5.22;4.22;;;23.80;60.00;;;;;;5171093;28;20041;-73
2022/05/11 09:25:51;;;;;;;6.28;4.10;;;23.80;59.10;;;;;;5169540;28;20042;-72
2022/05/11 09:28:30;;;;;;;4.97;3.95;;;23.80;59.30;;;;;;5170010;28;20564;-73
2022/05/11 09:31:12;;;;;;;5.30;3.83;;;23.80;59.70;;;;;;5171080;28;20245;-73
2022/05/11 09:34:04;;;;;;;6.03;3.97;;;23.90;58.40;;;;;;5171396;28;20112;-74
2022/05/11 09:37:02;;;;;;;5.97;4.20;;;24.00;59.00;;;;;;5167684;28;20033;-72
2022/05/11 09:39:35;;;;;;;6.05;4.05;;;24.00;58.40;;;;;;5167574;28;20631;-73
2022/05/11 09:42:19;;;;;;;4.57;4.18;;;24.10;59.10;;;;;;5185704;28;20473;-74
2022/05/11 09:44:53;;;;;;;;;;;24.10;58.20;;;;;;5169718;28;20325;-74
2022/05/11 09:47:27;;;;;;;;;;;24.10;56.40;;;;;;5171908;28;19952;-74
2022/05/11 09:50:22;;;;;;;8.43;3.55;;;24.10;56.90;;;;;;5168889;28;19936;-73
2022/05/11 09:53:07;;;;;;;5.60;3.85;;;24.30;56.90;;;;;;5169889;28;20544;-74
2022/05/11 09:55:39;;;;;;;5.55;3.65;;;24.40;58.90;;;;;;5170657;28;20847;-72
2022/05/11 09:58:27;;;;;;;4.70;3.53;;;24.60;56.90;;;;;;5170582;28;20405;-73
2022/05/11 10:01:13;;;;;;;6.28;3.42;;;24.70;56.20;;;;;;5170595;28;20100;-73
2022/05/11 10:03:51;;;;;;;8.43;3.65;;;24.80;55.40;;;;;;5171388;28;20422;-74
2022/05/11 10:06:51;;;;;;;5.45;3.65;;;24.90;55.30;;;;;;5169486;28;20049;-73
2022/05/11 10:09:32;;;;;;;5.20;2.95;;;24.90;54.10;;;;;;5169580;28;20089;-73
2022/05/11 10:12:16;;;;;;;7.78;3.50;;;25.00;52.70;;;;;;5169347;28;20056;-73
2022/05/11 10:21:54;;;;;;;6.57;3.22;;;25.50;54.90;;;;;;5171594;28;20046;-74
2022/05/11 10:25:05;;;;;;;6.32;3.58;;;25.60;52.20;;;;;;5148787;28;20273;-73
2022/05/11 10:27:41;;;;;;;5.65;3.47;;;25.60;51.40;;;;;;5170697;28;20046;-73
2022/05/11 10:30:43;;;;;;;7.53;3.50;;;25.80;52.50;;;;;;5170527;28;20050;-74
2022/05/11 10:33:53;;;;;;;5.47;3.30;;;26.00;51.20;;;;;;5167918;28;20686;-74
2022/05/11 10:36:47;;;;;;;4.97;3.53;;;26.30;52.40;;;;;;5169214;28;20166;-73
2022/05/11 10:39:41;;;;;;;4.63;3.40;;;26.40;51.10;;;;;;5170251;28;20403;-73
2022/05/11 10:42:17;;;;;;;4.03;3.63;;;26.30;51.20;;;;;;5167663;28;20046;-73
2022/05/11 10:44:58;;;;;;;3.78;3.42;;;26.40;51.60;;;;;;5169696;28;20061;-73
2022/05/11 10:47:51;;;;;;;4.05;3.10;;;26.40;51.50;;;;;;5168307;28;20061;-73
2022/05/11 10:50:45;;;;;;;7.18;3.63;;;26.40;49.40;;;;;;5170206;28;20525;-73
2022/05/11 10:53:30;;;;;;;4.18;3.38;;;26.40;49.80;;;;;;5168265;28;20057;-75
2022/05/11 10:56:08;;;;;;;7.45;3.67;;;26.60;49.90;;;;;;5169782;28;20061;-72
2022/05/11 10:59:00;;;;;;;4.75;3.70;;;26.80;50.10;;;;;;5167006;28;20054;-74
2022/05/11 11:01:50;;;;;;;4.90;3.60;;;27.20;49.90;;;;;;5168678;28;20050;-73
2022/05/11 11:04:46;;;;;;;4.00;3.08;;;27.30;48.50;;;;;;5167369;28;20042;-74
2022/05/11 11:07:29;;;;;;;7.93;3.13;;;27.50;51.50;;;;;;5168954;28;20045;-73
2022/05/11 11:10:27;;;;;;;7.20;2.97;;;28.00;48.90;;;;;;5168811;28;20357;-75
2022/05/11 11:13:24;;;;;;;4.40;2.88;;;28.20;47.10;;;;;;5168615;28;20046;-74
2022/05/11 11:15:57;;;;;;;4.20;3.28;;;28.00;47.40;;;;;;5168490;28;20050;-74
2022/05/11 11:18:34;;;;;;;5.65;2.90;;;28.30;49.40;;;;;;5166613;28;20053;-73
2022/05/11 11:21:09;;;;;;;6.72;3.50;;;28.40;47.80;;;;;;5168508;28;20053;-74
2022/05/11 11:23:48;;;;;;;5.72;3.10;;;28.60;48.80;;;;;;5161966;28;20038;-74
2022/05/11 11:26:29;;;;;;;5.95;4.07;;;28.50;45.20;;;;;;5157942;28;21285;-74
2022/05/11 11:29:01;;;;;;;6.43;3.30;;;28.40;45.50;;;;;;5156450;28;20057;-74
2022/05/11 11:31:56;;;;;;;10.32;3.10;;;28.40;46.50;;;;;;5156011;28;20061;-74
2022/05/11 11:34:37;;;;;;;6.55;3.10;;;28.50;44.20;;;;;;5152447;28;20061;-73
2022/05/11 11:37:37;;;;;;;5.28;2.90;;;28.70;44.00;;;;;;5146236;28;20061;-73
2022/05/11 11:40:12;;;;;;;3.83;2.97;;;28.60;47.70;;;;;;5144660;28;20085;-73
2022/05/11 11:42:45;;;;;;;4.90;2.92;;;28.90;44.60;;;;;;5153040;28;20554;-74
2022/05/11 11:45:27;;;;;;;;;;;28.90;45.20;;;;;;5152197;28;20119;-74
2022/05/11 11:48:05;;;;;;;4.28;2.97;;;29.10;44.10;;;;;;5156303;28;20439;-74
2022/05/11 11:50:48;;;;;;;4.38;2.92;;;29.50;44.80;;;;;;5151512;28;20046;-74
2022/05/11 11:53:24;;;;;;;4.07;2.60;;;29.50;43.60;;;;;;5161560;28;20080;-74
2022/05/11 11:56:22;;;;;;;4.18;2.88;;;29.60;43.00;;;;;;5158534;28;20042;-74
2022/05/11 11:59:03;;;;;;;3.65;2.33;;;29.40;40.10;;;;;;5159019;28;20046;-74
2022/05/11 12:01:41;;;;;;;5.80;2.85;;;29.20;39.50;;;;;;5151975;28;20042;-73
2022/05/11 12:04:36;;;;;;;2.70;2.33;;;29.10;38.80;;;;;;5162251;28;20050;-73
2022/05/11 12:16:10;;;;;;;4.10;2.58;;;30.20;39.80;;;;;;5149805;28;20521;-73
2022/05/11 12:18:44;;;;;;;5.35;2.60;;;30.30;39.80;;;;;;5148000;28;20054;-74
2022/05/11 12:21:32;;;;;;;5.15;2.78;;;30.80;42.10;;;;;;5156338;28;20636;-74
2022/05/11 12:24:17;;;;;;;4.25;2.67;;;31.30;37.80;;;;;;5144456;28;20050;-73
2022/05/11 12:27:02;;;;;;;3.25;2.42;;;30.90;39.30;;;;;;5145078;28;20358;-73
2022/05/11 12:32:33;;;;;;;2.67;2.17;;;31.30;38.10;;;;;;5150111;28;20065;-72
2022/05/11 12:35:29;;;;;;;4.22;2.42;;;31.20;36.10;;;;;;5142386;28;20699;-73
2022/05/11 12:38:11;;;;;;;5.18;2.90;;;31.20;37.40;;;;;;5147710;28;20046;-72
2022/05/11 12:40:50;;;;;;;6.68;2.60;;;31.70;39.30;;;;;;5145025;28;20050;-75
2022/05/11 12:43:38;;;;;;;3.72;2.35;;;32.00;38.60;;;;;;5147978;28;20811;-74
2022/05/11 12:46:15;;;;;;;5.53;2.78;;;32.00;37.90;;;;;;5138201;28;20342;-74
2022/05/11 12:48:57;;;;;;;5.13;3.00;;;32.40;39.10;;;;;;5140118;28;20649;-73
2022/05/11 12:51:33;;;;;;;4.87;2.73;;;32.40;38.40;;;;;;5141063;28;20065;-74
2022/05/11 12:54:15;;;;;;;3.22;2.75;;;32.60;39.60;;;;;;5149835;28;20049;-74
2022/05/11 12:57:05;;;;;;;4.97;2.30;;;32.70;36.80;;;;;;5144815;28;20041;-75
2022/05/11 12:59:39;;;;;;;6.30;2.47;;;32.10;36.80;;;;;;5143261;28;20428;-74
2022/05/11 13:02:12;;;;;;;8.93;3.33;;;32.30;36.30;;;;;;5141807;28;20577;-74
2022/05/11 13:04:56;;;;;;;5.82;2.30;;;32.40;37.70;;;;;;5150262;28;20056;-72
2022/05/11 13:07:38;;;;;;;3.58;2.65;;;32.70;36.80;;;;;;5144386;28;20057;-74
2022/05/11 13:10:33;;;;;;;3.67;2.17;;;32.50;35.40;;;;;;5147326;28;20042;-74
2022/05/11 13:13:12;;;;;;;3.88;2.40;;;32.80;36.70;;;;;;5151292;28;21203;-73
2022/05/11 13:15:47;;;;;;;6.22;2.90;;;32.80;36.00;;;;;;5156334;28;20055;-73
2022/05/11 13:18:30;;;;;;;3.35;2.80;;;33.00;37.00;;;;;;5140685;28;20050;-73
2022/05/11 13:21:07;;;;;;;4.93;2.70;;;33.30;36.80;;;;;;5149528;28;20045;-74
2022/05/11 13:23:50;;;;;;;5.45;2.45;;;33.30;35.60;;;;;;5144589;28;20149;-74
2022/05/11 13:26:56;;;;;;;2.25;1.83;;;33.30;35.40;;;;;;5129407;28;20049;-74
2022/05/11 13:29:28;;;;;;;5.05;2.50;;;33.10;34.40;;;;;;5149936;28;20050;-74
2022/05/11 13:32:03;;;;;;;2.65;2.30;;;33.40;36.10;;;;;;5128131;28;20045;-73
2022/05/11 13:34:41;;;;;;;6.35;2.40;;;33.40;34.50;;;;;;5134172;28;20057;-74
2022/05/11 13:37:29;;;;;;;3.97;3.00;;;33.10;35.40;;;;;;5135855;28;20049;-74
2022/05/11 13:40:01;;;;;;;2.60;2.30;;;33.00;35.60;;;;;;5137980;28;20046;-75
2022/05/11 13:42:33;;;;;;;2.92;2.55;;;33.10;35.70;;;;;;5145939;28;20042;-74
2022/05/11 13:45:08;;;;;;;7.55;2.80;;;33.00;35.40;;;;;;5142795;28;20093;-74
2022/05/11 13:50:39;;;;;;;2.97;2.22;;;33.30;34.80;;;;;;5145855;28;20038;-74
2022/05/11 13:53:14;;;;;;;7.57;2.45;;;33.20;34.10;;;;;;5144498;28;20053;-73
2022/05/11 13:56:14;;;;;;;8.57;2.35;;;33.00;34.60;;;;;;5146048;28;20057;-74
2022/05/11 13:58:57;;;;;;;4.38;2.42;;;32.80;33.60;;;;;;5144393;28;20057;-74
2022/05/11 14:01:39;;;;;;;3.95;2.60;;;32.90;34.30;;;;;;5142166;28;20037;-73
2022/05/11 14:04:12;;;;;;;3.03;2.50;;;33.30;35.20;;;;;;5145255;28;20054;-73
2022/05/11 14:07:25;;;;;;;3.40;2.40;;;33.20;34.70;;;;;;5138082;28;20041;-73
2022/05/11 14:09:58;;;;;;;4.15;2.75;;;32.80;34.80;;;;;;5132162;28;20426;-75
2022/05/11 14:12:30;;;;;;;4.43;2.33;;;33.10;35.40;;;;;;5146359;28;20738;-73
2022/05/11 14:15:03;;;;;;;3.70;2.40;;;32.90;34.50;;;;;;5159394;28;20042;-73
2022/05/11 14:17:45;;;;;;;4.53;2.08;;;32.50;35.10;;;;;;5146224;28;20050;-74
2022/05/11 14:20:24;;;;;;;6.57;2.70;;;32.60;35.30;;;;;;5137638;28;20596;-74
2022/05/11 14:23:04;;;;;;;4.82;2.90;;;32.50;34.90;;;;;;5127578;28;20368;-74
2022/05/11 14:25:38;;;;;;;3.28;2.40;;;32.80;35.90;;;;;;5136103;28;21643;-74